Time;durP1;ratioP1;P1;durP2;ratioP2;P2;SDS_P1;SDS_P2;PMS_P1;PMS_P2;Temp;Humidity;BMP_temperature;BMP_pressure;BME280_temperature;BME280_humidity;BME280_pressure;Samples;Min_cycle;Max_cycle;Signal;HPM_P1;HPM_P2
2023/09/14 00:00:42;;;;;;;16.92;6.22;;;;;;;17.93;100.00;97459.44;5155579;27;20495;-73
2023/09/14 00:03:07;;;;;;;13.95;6.57;;;;;;;17.80;100.00;97457.84;5154327;27;20133;-72
2023/09/14 00:05:41;;;;;;;11.45;6.00;;;;;;;17.69;100.00;97457.97;5155422;27;20022;-73
2023/09/14 00:08:07;;;;;;;10.70;6.60;;;;;;;17.74;100.00;97455.72;5154586;27;20490;-72
2023/09/14 00:10:32;;;;;;;10.63;5.70;;;;;;;17.66;100.00;97447.44;5153971;27;20023;-72
2023/09/14 00:12:58;;;;;;;15.32;7.03;;;;;;;17.60;100.00;97447.13;5155426;27;20057;-72
2023/09/14 00:15:24;;;;;;;12.80;7.28;;;;;;;17.57;100.00;97453.69;5154001;27;20046;-73
2023/09/14 00:17:50;;;;;;;10.63;5.95;;;;;;;17.55;100.00;97439.47;5154162;27;20426;-73
2023/09/14 00:20:22;;;;;;;11.10;7.00;;;;;;;17.57;100.00;97442.00;5134817;27;20030;-73
2023/09/14 00:22:51;;;;;;;;;;;;;;;17.55;100.00;97439.47;5134738;27;20076;-73
2023/09/14 00:25:20;;;;;;;11.85;5.90;;;;;;;17.54;100.00;97440.41;5152241;27;19946;-73
2023/09/14 00:27:47;;;;;;;11.38;6.20;;;;;;;17.59;100.00;97443.59;5153741;27;20482;-71
2023/09/14 00:30:13;;;;;;;10.00;5.88;;;;;;;17.63;100.00;97436.91;5154414;27;20105;-71
2023/09/14 00:32:40;;;;;;;14.30;5.22;;;;;;;17.59;100.00;97438.19;5154220;27;20102;-71
2023/09/14 00:35:12;;;;;;;10.73;5.90;;;;;;;17.63;100.00;97446.84;5136283;27;20405;-71
2023/09/14 00:37:38;;;;;;;;;;;;;;;17.67;100.00;97451.00;5154317;27;20428;-70
2023/09/14 00:40:08;;;;;;;10.68;6.00;;;;;;;17.61;100.00;97441.59;5153414;27;20373;-72
2023/09/14 00:42:45;;;;;;;9.73;6.32;;;;;;;17.65;100.00;97432.22;5153776;27;20056;-72
2023/09/14 00:45:15;;;;;;;11.13;6.43;;;;;;;17.52;100.00;97428.03;5136183;27;20469;-72
2023/09/14 00:47:45;;;;;;;14.80;6.00;;;;;;;17.49;100.00;97426.47;5153564;27;20401;-72
2023/09/14 00:50:15;;;;;;;13.10;5.93;;;;;;;17.45;100.00;97426.88;5132850;27;20047;-71
2023/09/14 00:52:40;;;;;;;9.13;5.95;;;;;;;17.44;100.00;97422.47;5148918;27;20023;-71
2023/09/14 00:55:07;;;;;;;11.85;6.13;;;;;;;17.35;100.00;97430.44;5135815;27;20037;-72
2023/09/14 00:57:34;;;;;;;12.93;6.38;;;;;;;17.34;100.00;97430.59;5135975;27;20034;-72
2023/09/14 00:59:59;;;;;;;10.50;6.15;;;;;;;17.30;100.00;97431.84;5153090;27;20030;-72
2023/09/14 01:02:26;;;;;;;11.60;6.70;;;;;;;17.31;100.00;97425.44;5152987;27;20045;-72
2023/09/14 01:04:52;;;;;;;11.48;6.40;;;;;;;17.30;100.00;97430.00;5135660;27;20033;-71
2023/09/14 01:07:18;;;;;;;14.52;7.18;;;;;;;17.26;100.00;97423.16;5135723;27;20110;-71
2023/09/14 01:09:44;;;;;;;13.05;7.30;;;;;;;17.24;100.00;97422.44;5153224;27;20014;-73
2023/09/14 01:12:10;;;;;;;10.55;6.63;;;;;;;17.10;100.00;97422.81;5152999;27;20019;-73
2023/09/14 01:14:45;;;;;;;17.95;7.22;;;;;;;17.15;100.00;97419.72;5152878;27;20029;-71
2023/09/14 01:17:15;;;;;;;10.43;6.95;;;;;;;17.21;100.00;97419.16;5152571;27;20093;-72
2023/09/14 01:20:16;;;;;;;11.82;6.85;;;;;;;17.09;100.00;97426.53;5153079;27;20019;-71
2023/09/14 01:22:45;;;;;;;13.30;7.25;;;;;;;16.98;100.00;97426.63;5152906;27;20031;-70
2023/09/14 01:28:32;;;;;;;14.13;6.40;;;;;;;17.17;100.00;97425.81;5141530;27;20033;-72
2023/09/14 01:30:58;;;;;;;12.27;6.55;;;;;;;17.18;100.00;97416.75;5152777;27;20401;-72
2023/09/14 01:33:25;;;;;;;10.70;6.40;;;;;;;17.17;100.00;97418.56;5153834;27;20401;-72
2023/09/14 01:36:00;;;;;;;12.75;6.88;;;;;;;17.15;100.00;97417.88;5152261;27;20062;-72
2023/09/14 01:38:27;;;;;;;15.15;6.07;;;;;;;17.25;100.00;97415.19;5152575;27;20023;-72
2023/09/14 01:40:53;;;;;;;23.73;6.95;;;;;;;17.27;100.00;97426.72;5134123;27;20069;-72
2023/09/14 01:43:19;;;;;;;15.43;7.15;;;;;;;17.14;100.00;97421.56;5152411;27;20025;-71
2023/09/14 01:45:45;;;;;;;13.63;7.05;;;;;;;17.19;100.00;97422.03;5152484;27;20480;-71
2023/09/14 01:48:15;;;;;;;8.32;6.18;;;;;;;17.13;100.00;97427.13;5152045;27;20050;-72
2023/09/14 01:50:41;;;;;;;10.18;6.45;;;;;;;17.16;100.00;97432.25;5152336;27;20034;-71
2023/09/14 01:53:07;;;;;;;18.13;7.03;;;;;;;17.12;100.00;97430.81;5151962;27;20163;-71
2023/09/14 01:55:32;;;;;;;11.52;6.53;;;;;;;17.12;100.00;97434.38;5134820;27;20528;-71
2023/09/14 01:57:58;;;;;;;12.63;6.30;;;;;;;17.04;100.00;97442.28;5134985;27;20030;-73
2023/09/14 02:00:25;;;;;;;17.58;6.53;;;;;;;17.12;100.00;97431.66;5151795;27;20026;-71
2023/09/14 02:02:54;;;;;;;11.93;6.18;;;;;;;17.07;100.00;97436.59;5152123;27;20027;-72
2023/09/14 02:05:20;;;;;;;17.33;6.30;;;;;;;17.08;100.00;97440.16;5153016;27;20015;-71
2023/09/14 02:07:46;;;;;;;74.93;41.80;;;;;;;17.05;100.00;97424.22;5153250;27;20018;-72
2023/09/14 02:10:11;;;;;;;20.55;7.22;;;;;;;16.99;100.00;97431.06;5152859;27;20030;-73
2023/09/14 02:12:37;;;;;;;19.13;6.82;;;;;;;17.01;100.00;97425.53;5152026;27;20037;-72
2023/09/14 02:15:03;;;;;;;18.10;6.60;;;;;;;16.93;100.00;97444.25;5153144;27;20022;-72
2023/09/14 02:17:30;;;;;;;31.65;15.38;;;;;;;16.97;100.00;97437.59;5151430;27;20058;-71
2023/09/14 02:19:56;;;;;;;10.43;6.60;;;;;;;16.88;100.00;97441.97;5152962;27;20587;-72
2023/09/14 02:22:22;;;;;;;18.33;7.50;;;;;;;16.78;100.00;97433.81;5151292;27;20101;-71
2023/09/14 02:24:47;;;;;;;14.13;6.53;;;;;;;16.86;100.00;97440.41;5151786;27;20029;-71
2023/09/14 02:27:13;;;;;;;18.90;7.00;;;;;;;16.71;100.00;97438.06;5152641;27;20034;-71
2023/09/14 02:29:38;;;;;;;14.68;6.80;;;;;;;16.70;100.00;97430.09;5134237;27;20421;-72
2023/09/14 02:32:05;;;;;;;14.15;6.10;;;;;;;16.72;100.00;97433.50;5133991;27;20537;-72
2023/09/14 02:34:31;;;;;;;15.63;6.97;;;;;;;16.69;100.00;97437.34;5133922;27;20026;-71
2023/09/14 02:36:56;;;;;;;15.38;6.93;;;;;;;16.66;100.00;97434.06;5134121;27;20141;-72
2023/09/14 02:39:22;;;;;;;16.15;5.90;;;;;;;16.64;100.00;97431.47;5152386;27;20023;-73
2023/09/14 02:41:47;;;;;;;11.07;6.40;;;;;;;16.67;100.00;97433.06;5151274;27;20027;-72
2023/09/14 02:44:13;;;;;;;22.40;6.90;;;;;;;16.62;100.00;97421.81;5151418;27;20042;-70
2023/09/14 02:46:38;;;;;;;16.33;6.50;;;;;;;16.65;100.00;97435.03;5151223;27;20038;-71
2023/09/14 02:49:04;;;;;;;12.95;7.32;;;;;;;16.64;100.00;97426.06;5152402;27;20022;-71
2023/09/14 02:51:29;;;;;;;22.33;8.13;;;;;;;16.60;100.00;97430.06;5151934;27;20483;-71
2023/09/14 02:53:55;;;;;;;21.58;9.68;;;;;;;16.62;100.00;97422.66;5151088;27;20031;-72
2023/09/14 02:56:20;;;;;;;18.52;8.38;;;;;;;16.80;100.00;97439.94;5152131;27;20048;-71
2023/09/14 02:58:46;;;;;;;20.27;8.73;;;;;;;16.78;100.00;97428.44;5133838;27;20027;-72
2023/09/14 03:01:11;;;;;;;26.63;9.27;;;;;;;16.87;100.00;97431.28;5152050;27;20058;-72
2023/09/14 03:03:38;;;;;;;12.52;7.10;;;;;;;16.87;100.00;97426.75;5150748;27;20030;-71
2023/09/14 03:06:04;;;;;;;29.63;9.98;;;;;;;16.87;100.00;97429.44;5151006;27;20073;-72
2023/09/14 03:08:30;;;;;;;24.70;7.40;;;;;;;16.95;100.00;97431.47;5150709;27;20027;-72
2023/09/14 03:10:56;;;;;;;55.30;14.43;;;;;;;16.99;100.00;97441.00;5151017;27;20499;-72
2023/09/14 03:13:22;;;;;;;19.20;7.95;;;;;;;17.02;100.00;97429.91;5150786;27;20393;-73
2023/09/14 03:15:53;;;;;;;14.77;6.70;;;;;;;16.99;100.00;97425.66;5150793;27;20047;-72
2023/09/14 03:18:19;;;;;;;16.27;7.23;;;;;;;17.00;100.00;97432.78;5152114;27;20491;-72
2023/09/14 03:20:53;;;;;;;15.27;6.47;;;;;;;17.01;100.00;97436.34;5150674;27;20022;-72
2023/09/14 03:23:18;;;;;;;28.13;11.00;;;;;;;17.10;100.00;97449.84;5150944;27;20086;-72
2023/09/14 03:25:44;;;;;;;26.13;11.07;;;;;;;17.06;100.00;97442.16;5151864;27;20093;-72
2023/09/14 03:28:11;;;;;;;33.35;12.10;;;;;;;17.11;100.00;97450.72;5150852;27;20417;-72
2023/09/14 03:30:36;;;;;;;28.42;9.35;;;;;;;17.16;100.00;97443.06;5150458;27;20022;-73
2023/09/14 03:33:02;;;;;;;20.10;7.30;;;;;;;17.14;100.00;97451.28;5150927;27;20031;-73
2023/09/14 03:35:28;;;;;;;21.75;6.90;;;;;;;17.21;100.00;97448.91;5150448;27;20022;-71
2023/09/14 03:37:53;;;;;;;19.92;7.55;;;;;;;17.19;100.00;97442.78;5150796;27;20113;-71
2023/09/14 03:40:19;;;;;;;26.75;10.60;;;;;;;17.19;100.00;97440.09;5150483;27;20118;-72
2023/09/14 03:42:44;;;;;;;26.48;9.23;;;;;;;17.27;100.00;97451.91;5151783;27;20029;-72
2023/09/14 03:45:10;;;;;;;25.27;9.20;;;;;;;17.27;100.00;97453.75;5150490;27;20050;-71
2023/09/14 03:47:36;;;;;;;31.20;8.50;;;;;;;17.18;100.00;97454.59;5150213;27;20063;-71
2023/09/14 03:50:01;;;;;;;16.02;6.80;;;;;;;17.16;100.00;97443.06;5150487;27;20456;-72
2023/09/14 03:52:27;;;;;;;29.85;9.38;;;;;;;17.13;100.00;97452.31;5150548;27;20027;-72
2023/09/14 03:54:52;;;;;;;19.95;8.45;;;;;;;17.15;100.00;97452.16;5133180;27;20477;-75
2023/09/14 03:57:18;;;;;;;21.83;8.75;;;;;;;17.06;100.00;97453.84;5133170;27;20023;-72
2023/09/14 03:59:43;;;;;;;14.23;7.22;;;;;;;17.07;100.00;97455.53;5150564;27;20054;-73
2023/09/14 04:02:10;;;;;;;22.33;9.80;;;;;;;17.03;100.00;97459.53;5150121;27;20095;-70
2023/09/14 04:04:35;;;;;;;17.90;7.70;;;;;;;16.96;100.00;97458.34;5134795;27;20015;-72
2023/09/14 04:07:01;;;;;;;140.38;90.70;;;;;;;16.94;100.00;97457.63;5154041;27;20445;-73
2023/09/14 04:09:29;;;;;;;22.83;8.80;;;;;;;16.90;100.00;97463.44;5153835;27;20018;-72
2023/09/14 04:11:56;;;;;;;24.80;9.85;;;;;;;16.92;100.00;97462.31;5155277;27;20114;-70
2023/09/14 04:14:22;;;;;;;17.10;7.85;;;;;;;16.96;100.00;97462.91;5154064;27;20529;-72
2023/09/14 04:16:47;;;;;;;23.95;9.50;;;;;;;16.93;100.00;97455.06;5155146;27;20152;-72
2023/09/14 04:19:14;;;;;;;26.90;9.60;;;;;;;17.01;100.00;97466.06;5153838;27;20488;-71
2023/09/14 04:21:41;;;;;;;18.60;9.05;;;;;;;17.06;100.00;97459.25;5155082;27;20133;-72
2023/09/14 04:24:07;;;;;;;31.35;12.63;;;;;;;17.06;100.00;97466.50;5153592;27;20053;-72
2023/09/14 04:26:33;;;;;;;30.90;10.20;;;;;;;17.14;100.00;97472.06;5153656;27;20024;-71
2023/09/14 04:28:58;;;;;;;28.48;8.93;;;;;;;17.12;100.00;97476.75;5153597;27;20099;-72
2023/09/14 04:31:25;;;;;;;27.52;9.35;;;;;;;17.10;100.00;97473.34;5153848;27;20023;-73
2023/09/14 04:33:51;;;;;;;47.13;15.30;;;;;;;17.18;100.00;97473.50;5134436;27;20050;-71
2023/09/14 04:36:19;;;;;;;26.83;10.23;;;;;;;17.17;100.00;97467.25;5152571;27;20183;-72
2023/09/14 04:38:44;;;;;;;28.77;9.52;;;;;;;17.31;100.00;97468.72;5154884;27;20087;-72
2023/09/14 04:41:10;;;;;;;28.33;10.15;;;;;;;17.42;100.00;97465.88;5153188;27;20030;-72
2023/09/14 04:43:36;;;;;;;29.50;10.65;;;;;;;17.53;100.00;97473.88;5136074;27;20101;-73
2023/09/14 04:46:04;;;;;;;31.70;11.32;;;;;;;17.53;100.00;97471.19;5153158;27;20022;-74
2023/09/14 04:48:30;;;;;;;31.65;9.45;;;;;;;17.66;100.00;97469.06;5153489;27;20038;-72
2023/09/14 04:50:59;;;;;;;17.70;7.00;;;;;;;17.69;100.00;97471.50;5136023;27;20030;-71
2023/09/14 04:53:25;;;;;;;22.50;7.43;;;;;;;17.77;100.00;97477.09;5135522;27;20026;-73
2023/09/14 04:55:51;;;;;;;25.23;9.27;;;;;;;17.79;100.00;97466.09;5153282;27;20466;-72
2023/09/14 04:58:16;;;;;;;24.77;7.72;;;;;;;17.80;100.00;97468.69;5152911;27;20026;-71
2023/09/14 05:00:42;;;;;;;23.42;7.90;;;;;;;17.83;100.00;97479.22;5152977;27;20083;-73
2023/09/14 05:03:07;;;;;;;15.40;7.60;;;;;;;17.67;100.00;97478.91;5152684;27;20402;-73
2023/09/14 05:05:33;;;;;;;24.30;8.98;;;;;;;17.68;100.00;97471.66;5153102;27;20121;-73
2023/09/14 05:07:59;;;;;;;29.05;9.43;;;;;;;17.84;100.00;97486.31;5153106;27;20105;-73
2023/09/14 05:10:25;;;;;;;26.35;10.15;;;;;;;18.02;100.00;97485.63;5152793;27;20026;-72
2023/09/14 05:12:51;;;;;;;35.78;10.82;;;;;;;18.15;100.00;97486.22;5154095;27;20062;-74
2023/09/14 05:15:17;;;;;;;43.17;9.45;;;;;;;18.29;100.00;97496.59;5135037;27;20061;-73
2023/09/14 05:17:46;;;;;;;29.30;9.55;;;;;;;18.35;100.00;97479.75;5154142;27;20157;-72
2023/09/14 05:20:12;;;;;;;45.22;9.55;;;;;;;18.38;100.00;97487.59;5153829;27;20070;-74
2023/09/14 05:22:38;;;;;;;21.77;7.97;;;;;;;18.61;100.00;97491.72;5154114;27;20062;-73
2023/09/14 05:25:04;;;;;;;29.67;9.48;;;;;;;18.75;100.00;97488.56;5127420;27;20477;-72
2023/09/14 05:27:40;;;;;;;35.80;8.98;;;;;;;18.93;100.00;97472.38;5131476;27;20110;-72
2023/09/14 05:30:08;;;;;;;34.00;8.80;;;;;;;19.10;100.00;97476.16;5127750;27;20022;-72
2023/09/14 05:32:35;;;;;;;35.42;8.85;;;;;;;19.31;100.00;97487.63;5131369;27;20025;-72
2023/09/14 05:35:00;;;;;;;29.02;9.68;;;;;;;20.31;100.00;97474.81;5151625;27;20040;-73
2023/09/14 05:37:26;;;;;;;21.85;8.95;;;;;;;21.70;100.00;97459.97;5152518;27;20106;-73
2023/09/14 05:39:52;;;;;;;26.75;8.98;;;;;;;22.89;100.00;97453.91;5133580;27;20114;-73
2023/09/14 05:42:18;;;;;;;23.90;7.70;;;;;;;24.05;100.00;97442.16;5132107;27;20466;-73
2023/09/14 05:44:44;;;;;;;30.58;6.50;;;;;;;24.39;88.88;97425.34;5153284;27;20018;-73
2023/09/14 05:47:14;;;;;;;24.95;7.78;;;;;;;24.39;90.80;97444.50;5152375;27;20481;-73
2023/09/14 05:49:40;;;;;;;25.02;7.93;;;;;;;23.66;95.56;97455.03;5152361;27;20114;-73
2023/09/14 05:52:06;;;;;;;24.35;7.75;;;;;;;23.68;98.68;97458.44;5151944;27;20046;-73
2023/09/14 05:54:31;;;;;;;33.25;8.63;;;;;;;24.05;96.96;97461.31;5132156;27;20030;-73
2023/09/14 05:56:57;;;;;;;40.40;9.98;;;;;;;24.50;94.55;97444.06;5132810;27;20034;-73
2023/09/14 05:59:22;;;;;;;34.08;10.45;;;;;;;24.99;90.71;97447.19;5153059;27;20031;-73
2023/09/14 06:01:48;;;;;;;36.90;10.52;;;;;;;25.73;82.82;97442.53;5153155;27;20062;-73
2023/09/14 06:04:13;;;;;;;28.90;10.65;;;;;;;26.33;77.80;97450.44;5152020;27;20556;-73
2023/09/14 06:06:39;;;;;;;32.72;8.85;;;;;;;26.76;73.40;97435.59;5151406;27;20439;-74
2023/09/14 06:09:04;;;;;;;27.98;8.57;;;;;;;27.28;71.98;97439.81;5151644;27;20401;-74
2023/09/14 06:11:30;;;;;;;27.05;8.05;;;;;;;28.10;63.59;97429.63;5134425;27;20023;-73
2023/09/14 06:13:55;;;;;;;31.48;8.43;;;;;;;28.44;61.30;97420.38;5151744;27;20031;-74
2023/09/14 06:16:21;;;;;;;25.02;9.38;;;;;;;28.50;62.73;97439.66;5134076;27;20050;-73
2023/09/14 06:18:46;;;;;;;31.77;8.63;;;;;;;28.98;58.71;97436.72;5152540;27;20018;-74
2023/09/14 06:21:12;;;;;;;46.75;15.68;;;;;;;29.25;57.75;97432.91;5150624;27;20204;-73
2023/09/14 06:23:40;;;;;;;46.50;12.98;;;;;;;29.62;57.13;97441.50;5152388;27;20070;-74
2023/09/14 06:26:05;;;;;;;55.08;15.57;;;;;;;29.89;55.92;97432.09;5151407;27;20023;-74
2023/09/14 06:28:31;;;;;;;48.80;13.90;;;;;;;30.75;51.72;97432.41;5151031;27;20027;-74
2023/09/14 06:30:58;;;;;;;31.38;9.10;;;;;;;30.90;49.83;97424.63;5152655;27;20039;-74
2023/09/14 06:33:23;;;;;;;36.17;9.85;;;;;;;31.93;47.18;97428.47;5150939;27;20058;-73
2023/09/14 06:35:49;;;;;;;29.80;8.77;;;;;;;33.16;44.05;97421.31;5151365;27;20054;-73
2023/09/14 06:38:14;;;;;;;39.72;9.75;;;;;;;33.68;41.94;97414.78;5151181;27;20094;-74
2023/09/14 06:40:40;;;;;;;30.65;6.55;;;;;;;33.47;40.81;97406.22;5133769;27;20022;-74
2023/09/14 06:43:05;;;;;;;20.38;6.28;;;;;;;32.93;41.59;97421.25;5151249;27;20034;-73
2023/09/14 06:45:33;;;;;;;35.03;6.72;;;;;;;32.33;41.53;97418.56;5152174;27;20026;-74
2023/09/14 06:47:58;;;;;;;21.13;5.80;;;;;;;31.68;42.83;97426.66;5152251;27;20027;-74
2023/09/14 06:50:24;;;;;;;28.33;7.25;;;;;;;31.26;43.97;97418.34;5151129;27;20027;-74
2023/09/14 06:52:52;;;;;;;23.73;7.22;;;;;;;30.81;44.68;97420.47;5151702;27;20030;-74
2023/09/14 06:55:19;;;;;;;26.02;6.10;;;;;;;30.40;45.10;97435.63;5152323;27;20023;-74
2023/09/14 06:57:45;;;;;;;21.65;5.03;;;;;;;30.29;46.13;97447.38;5152213;27;20058;-73
2023/09/14 07:00:14;;;;;;;22.45;5.28;;;;;;;30.12;46.32;97448.13;5152201;27;20482;-73
2023/09/14 07:02:41;;;;;;;31.25;6.38;;;;;;;29.94;47.62;97440.53;5150743;27;20034;-74
2023/09/14 07:05:06;;;;;;;24.00;5.40;;;;;;;29.75;48.29;97453.31;5150676;27;20114;-74
2023/09/14 07:07:32;;;;;;;13.88;5.05;;;;;;;29.66;47.42;97451.88;5133469;27;20538;-74
2023/09/14 07:09:57;;;;;;;12.63;4.00;;;;;;;29.22;49.03;97460.88;5152308;27;20488;-74
2023/09/14 07:12:23;;;;;;;18.90;5.72;;;;;;;29.02;51.09;97460.88;5133652;27;20034;-74
2023/09/14 07:14:49;;;;;;;18.50;4.93;;;;;;;28.46;51.83;97471.41;5150749;27;20497;-74
2023/09/14 07:17:16;;;;;;;14.43;5.28;;;;;;;28.18;52.14;97470.72;5150779;27;20046;-74
2023/09/14 07:19:42;;;;;;;14.13;5.07;;;;;;;28.16;52.29;97469.22;5133217;27;20123;-73
2023/09/14 07:22:07;;;;;;;10.95;4.88;;;;;;;28.35;53.03;97474.78;5133261;27;20057;-74
2023/09/14 07:24:33;;;;;;;31.90;5.78;;;;;;;28.70;53.17;97474.66;5133574;27;20135;-73
2023/09/14 07:26:59;;;;;;;14.93;4.63;;;;;;;29.03;52.08;97470.00;5150687;27;20021;-74
2023/09/14 07:29:24;;;;;;;15.88;4.72;;;;;;;29.22;51.12;97460.88;5151992;27;20110;-73
2023/09/14 07:31:51;;;;;;;24.00;5.85;;;;;;;30.08;49.62;97475.31;5150405;27;20118;-73
2023/09/14 07:34:16;;;;;;;21.85;4.80;;;;;;;31.10;47.20;97462.09;5132887;27;20027;-74
2023/09/14 07:36:42;;;;;;;21.92;5.22;;;;;;;32.06;44.44;97464.28;5151544;27;20027;-73
2023/09/14 07:39:08;;;;;;;18.20;4.53;;;;;;;32.52;43.59;97470.03;5151878;27;20461;-74
2023/09/14 07:41:33;;;;;;;16.75;5.63;;;;;;;32.77;42.05;97449.66;5139262;27;20027;-74
2023/09/14 07:43:58;;;;;;;19.48;7.13;;;;;;;32.94;41.26;97442.34;5153889;27;20175;-74
2023/09/14 07:46:24;;;;;;;17.10;5.68;;;;;;;32.46;41.08;97443.28;5154580;27;20026;-73
2023/09/14 07:48:49;;;;;;;24.50;5.15;;;;;;;32.95;40.56;97441.28;5155521;27;20572;-73
2023/09/14 07:51:15;;;;;;;17.10;4.65;;;;;;;33.40;40.21;97455.44;5155740;27;20019;-74
2023/09/14 07:53:42;;;;;;;12.93;5.00;;;;;;;33.67;40.08;97446.38;5155631;27;20023;-73
2023/09/14 07:56:08;;;;;;;22.13;4.82;;;;;;;33.59;39.98;97451.44;5155921;27;20469;-73
2023/09/14 07:58:34;;;;;;;17.98;4.97;;;;;;;33.47;40.59;97451.44;5154438;27;20114;-73
2023/09/14 08:00:59;;;;;;;11.45;4.28;;;;;;;34.24;38.16;97452.06;5154035;27;20041;-74
2023/09/14 08:03:28;;;;;;;24.33;4.25;;;;;;;34.72;37.39;97448.84;5136755;27;20027;-74
2023/09/14 08:05:53;;;;;;;7.90;3.83;;;;;;;34.87;36.73;97449.13;5154130;27;20437;-74
2023/09/14 08:08:19;;;;;;;17.48;4.35;;;;;;;35.53;36.15;97453.00;5154398;27;20022;-74
2023/09/14 08:10:50;;;;;;;19.30;4.47;;;;;;;35.98;35.28;97441.69;5154041;27;20027;-74
2023/09/14 08:13:15;;;;;;;20.08;4.97;;;;;;;35.88;35.81;97446.00;5154175;27;20025;-74
2023/09/14 08:15:41;;;;;;;14.18;4.45;;;;;;;36.42;34.75;97432.22;5155236;27;20425;-75
2023/09/14 08:18:06;;;;;;;18.60;4.18;;;;;;;37.28;33.65;97431.13;5153910;27;20072;-74
2023/09/14 08:20:32;;;;;;;18.58;4.47;;;;;;;36.82;33.56;97421.50;5154148;27;20025;-73
2023/09/14 08:23:00;;;;;;;24.52;4.90;;;;;;;37.18;33.31;97419.03;5153970;27;20468;-74
2023/09/14 08:25:25;;;;;;;17.30;4.88;;;;;;;37.26;32.91;97419.38;5153787;27;20031;-74
2023/09/14 08:27:51;;;;;;;25.00;4.70;;;;;;;38.01;32.23;97420.16;5153866;27;20026;-74
2023/09/14 08:30:16;;;;;;;19.77;6.63;;;;;;;38.13;31.62;97415.16;5155044;27;20034;-75
2023/09/14 08:32:44;;;;;;;13.80;4.55;;;;;;;38.24;32.00;97423.31;5136488;27;20018;-74
2023/09/14 08:35:22;;;;;;;16.08;5.10;;;;;;;38.63;31.66;97418.16;5153813;27;20034;-75
2023/09/14 08:37:48;;;;;;;19.35;4.43;;;;;;;37.47;31.78;97417.63;5136495;27;20030;-74
2023/09/14 08:40:14;;;;;;;13.38;4.43;;;;;;;38.35;31.21;97415.84;5153354;27;20427;-74
2023/09/14 08:42:41;;;;;;;28.35;7.47;;;;;;;39.29;30.17;97412.63;5154869;27;20065;-73
2023/09/14 08:45:10;;;;;;;18.73;5.22;;;;;;;40.02;29.95;97416.69;5136224;27;20027;-74
2023/09/14 08:47:37;;;;;;;10.07;4.18;;;;;;;40.50;29.00;97412.25;5153275;27;20038;-74
2023/09/14 08:50:03;;;;;;;9.10;3.83;;;;;;;38.97;29.74;97401.69;5152576;27;20030;-74
2023/09/14 08:52:29;;;;;;;15.45;3.90;;;;;;;39.10;29.98;97400.31;5153250;27;20079;-75
2023/09/14 08:54:55;;;;;;;15.50;5.68;;;;;;;39.52;29.52;97392.44;5153220;27;20084;-74
2023/09/14 08:57:21;;;;;;;16.27;5.18;;;;;;;40.59;27.79;97388.09;5154496;27;20411;-74
2023/09/14 08:59:46;;;;;;;18.70;4.30;;;;;;;40.75;26.92;97388.84;5154271;27;20026;-74
2023/09/14 09:02:14;;;;;;;9.57;3.75;;;;;;;41.13;26.57;97385.19;5152860;27;20121;-75
2023/09/14 09:04:40;;;;;;;20.10;4.00;;;;;;;41.60;25.54;97376.00;5153350;27;20466;-73
2023/09/14 09:07:07;;;;;;;9.85;3.55;;;;;;;42.57;23.89;97377.38;5154158;27;20038;-74
2023/09/14 09:09:32;;;;;;;13.98;3.72;;;;;;;42.91;23.97;97379.94;5154252;27;20018;-74
2023/09/14 09:11:58;;;;;;;9.25;3.85;;;;;;;42.78;24.19;97380.72;5153090;27;20033;-73
2023/09/14 09:14:23;;;;;;;12.43;3.72;;;;;;;43.45;23.91;97384.09;5154377;27;20401;-74
2023/09/14 09:16:49;;;;;;;8.35;3.50;;;;;;;43.60;23.44;97369.72;5152562;27;20047;-73
2023/09/14 09:19:15;;;;;;;20.63;5.40;;;;;;;43.86;23.39;97379.41;5154208;27;20022;-74
2023/09/14 09:21:41;;;;;;;13.10;3.85;;;;;;;42.91;23.17;97371.50;5154038;27;20473;-75
2023/09/14 09:24:07;;;;;;;8.35;3.63;;;;;;;42.49;23.54;97363.94;5152764;27;20030;-74
2023/09/14 09:26:35;;;;;;;10.27;3.60;;;;;;;42.27;23.86;97362.88;5152919;27;20517;-74
2023/09/14 09:29:22;;;;;;;12.85;4.60;;;;;;;42.65;24.02;97367.38;5152850;27;20049;-74
2023/09/14 09:31:52;;;;;;;14.60;5.90;;;;;;;42.19;24.39;97363.53;5153913;27;20402;-74
2023/09/14 09:34:24;;;;;;;8.00;3.90;;;;;;;41.88;24.69;97372.34;5134551;27;20058;-73
2023/09/14 09:36:59;;;;;;;8.68;3.92;;;;;;;41.63;24.89;97362.22;5148467;27;20409;-74
2023/09/14 09:39:25;;;;;;;11.38;4.68;;;;;;;42.43;24.38;97355.88;5153756;27;20350;-74
2023/09/14 09:41:58;;;;;;;16.48;4.53;;;;;;;43.22;23.71;97352.91;5153440;27;20114;-74
2023/09/14 09:44:27;;;;;;;14.07;4.03;;;;;;;43.75;23.19;97351.69;5134891;27;20022;-74
2023/09/14 09:46:56;;;;;;;12.52;4.45;;;;;;;43.56;23.59;97351.78;5145606;27;20471;-74
2023/09/14 09:49:23;;;;;;;7.90;4.07;;;;;;;41.97;23.89;97334.00;5151054;27;20018;-74
2023/09/14 09:51:50;;;;;;;11.43;3.42;;;;;;;40.79;24.85;97319.75;5152213;27;20501;-74
2023/09/14 09:54:19;;;;;;;7.97;3.80;;;;;;;41.65;24.25;97329.00;5151844;27;20018;-74
2023/09/14 09:56:44;;;;;;;10.75;4.00;;;;;;;42.79;23.79;97320.44;5152267;27;20449;-73
2023/09/14 09:59:15;;;;;;;10.15;4.18;;;;;;;43.14;23.32;97327.44;5151949;27;20018;-74
2023/09/14 10:01:41;;;;;;;;;;;;;;;42.63;23.49;97324.66;5151633;27;20026;-74
2023/09/14 10:04:11;;;;;;;14.32;3.85;;;;;;;43.40;23.01;97325.03;5151966;27;20029;-74
2023/09/14 10:06:43;;;;;;;9.73;3.67;;;;;;;44.19;22.23;97323.69;5151947;27;20018;-74
2023/09/14 10:09:11;;;;;;;9.25;3.97;;;;;;;44.43;22.00;97320.59;5152109;27;20018;-73
2023/09/14 10:11:37;;;;;;;9.63;3.60;;;;;;;43.99;22.27;97308.03;5139335;27;20128;-74
2023/09/14 10:14:04;;;;;;;12.70;3.80;;;;;;;45.04;22.17;97312.31;5134492;27;20102;-74
2023/09/14 10:16:34;;;;;;;8.40;3.60;;;;;;;45.22;21.34;97308.47;5151764;27;20057;-74
2023/09/14 10:19:02;;;;;;;8.43;4.00;;;;;;;44.78;21.42;97305.66;5151828;27;20034;-74
2023/09/14 10:21:28;;;;;;;7.25;4.00;;;;;;;43.89;22.36;97299.78;5142014;27;20096;-74
2023/09/14 10:23:54;;;;;;;8.88;3.80;;;;;;;42.99;22.72;97297.59;5132235;27;20106;-74
2023/09/14 10:26:19;;;;;;;9.93;3.72;;;;;;;43.11;22.43;97299.91;5148641;27;20027;-74
2023/09/14 10:28:46;;;;;;;10.98;4.40;;;;;;;43.07;22.57;97296.84;5152885;27;20023;-74
2023/09/14 10:31:13;;;;;;;11.25;4.10;;;;;;;42.99;22.42;97296.75;5151858;27;20079;-74
2023/09/14 10:33:42;;;;;;;7.78;3.85;;;;;;;43.29;22.57;97292.53;5151243;27;20038;-74
2023/09/14 10:36:09;;;;;;;9.55;3.53;;;;;;;43.27;22.73;97277.91;5151274;27;20114;-74
2023/09/14 10:38:38;;;;;;;9.95;3.80;;;;;;;43.41;22.51;97290.06;5142166;27;20082;-73
2023/09/14 10:41:04;;;;;;;12.05;3.55;;;;;;;43.48;22.29;97293.28;5151247;27;20034;-74
2023/09/14 10:43:30;;;;;;;17.35;4.10;;;;;;;44.36;21.59;97294.81;5152315;27;20390;-74
2023/09/14 10:46:00;;;;;;;9.70;4.18;;;;;;;44.86;21.21;97302.03;5150978;27;20034;-74
2023/09/14 10:48:29;;;;;;;8.38;3.47;;;;;;;44.85;21.17;97291.91;5150890;27;20477;-73
2023/09/14 10:50:59;;;;;;;12.85;4.00;;;;;;;43.93;21.64;97294.38;5150636;27;20082;-73
2023/09/14 10:53:24;;;;;;;8.10;4.10;;;;;;;42.37;22.87;97289.56;5150576;27;20443;-74
2023/09/14 10:55:50;;;;;;;11.23;4.38;;;;;;;41.47;23.56;97287.66;5133561;27;20030;-74
2023/09/14 10:58:16;;;;;;;12.65;4.28;;;;;;;41.72;23.56;97294.13;5150683;27;20034;-73
2023/09/14 11:00:45;;;;;;;9.45;3.95;;;;;;;40.65;24.15;97274.69;5150251;27;20015;-74
2023/09/14 11:03:12;;;;;;;13.15;4.90;;;;;;;40.99;23.89;97274.69;5150374;27;20509;-74
2023/09/14 11:05:47;;;;;;;11.43;4.43;;;;;;;42.08;23.85;97282.09;5150384;27;20115;-74
2023/09/14 11:08:14;;;;;;;7.35;3.83;;;;;;;42.04;22.60;97274.56;5133241;27;20110;-74
2023/09/14 11:10:52;;;;;;;17.17;4.80;;;;;;;43.34;22.19;97270.72;5133410;27;20442;-75
2023/09/14 11:13:21;;;;;;;7.18;3.97;;;;;;;44.63;21.46;97273.00;5153145;27;20030;-74
2023/09/14 11:16:05;;;;;;;9.77;4.15;;;;;;;42.19;23.01;97267.91;5157288;27;20047;-74
2023/09/14 11:18:43;;;;;;;7.97;4.50;;;;;;;42.72;23.14;97266.50;5157531;27;20481;-75
2023/09/14 11:21:32;;;;;;;11.30;4.45;;;;;;;42.11;23.26;97267.44;5157331;27;20043;-74
2023/09/14 11:24:02;;;;;;;6.43;4.28;;;;;;;42.34;23.16;97267.66;5144405;27;20031;-74